Share

Clearwater, NE

KNENELIG1 Elev 1750 ft | 42.13 °N, 98.03 °W | Change Station
Active Advisory: Fire Weather Warning

Current weather conditions updated 4 minutes ago

Clear
Clear
65.4 °F
Feels Like 65.4 °F
N
5.0
Wind Variable Wind from NNE
Gusts 13.0 mph
Sunrise 6:42 AM
Sunset 8:20 PM
Moon Waning Gibbous

Today is forecast to be Much Cooler than yesterday.

Pressure 30.09 in
Visibility 10.0 miles
Clouds Clear
Dew Point 31 °F
Humidity 28%
Rainfall -999.00 in
Snow Depth Not available.
UV 7 out of 16
Pollen 9.50 out of 12
Air Quality Not available.
Flu Activity Sporadic
METAR KOFK 211556Z AUTO 36022G30KT 10SM CLR 18/M01 A3010 RMK AO2 PK WND 36030/1556 SLP187 T01831011

More Conditions Fewer Conditions

Pressure 30.09 in
Visibility 10.0 miles
Clouds Clear
Dew Point 31 °F
Humidity 28%
Rainfall -999.00 in
Snow Depth Not available.
UV 7 out of 16
Pollen 9.50 out of 12
Air Quality Not available.
Flu Activity Sporadic
METAR KOFK 211556Z AUTO 36022G30KT 10SM CLR 18/M01 A3010 RMK AO2 PK WND 36030/1556 SLP187 T01831011

More Conditions Fewer Conditions

10-Day Weather Forecast

Almanac

Astronomy

Apr. 21, 2014 Rise Set
Actual Time 6:42 AM CDT 8:20 PM CDT
Civil Twilight 6:13 AM CDT 8:50 PM CDT
Nautical Twilight 5:37 AM CDT 9:26 PM CDT
Astronomical Twilight 4:59 AM CDT 10:04 PM CDT
Moon 1:53 AM CDT 12:09 PM CDT
Length of Visible Light 14h 37m
Length of Day
13h 37m
Tomorrow will be 2m 37s longer.
Waning Gibbous, 58% of the Moon is Illuminated
Today
Waning Gibbous
Apr 22
Last Quarter
Apr 29
New
May 6
First Quarter
May 14
Full

Today's Extremes

State Highs State Lows

Community

  • Bright Eyes
    Bright Eyes
  • Snowy Robin
    Snowy Robin
  • Spring Crocus
    Spring Crocus
  • Sun Pillar and Geese
    Sun Pillar and Geese
  • Showers on the Way
    Showers on the Way

WunderPhotos

Upload Photos

1,703,678 photos uploaded!

Nearby

Snow Depth

Station Depth Elevation
No new snow has been reported.

Coastal Water Temperatures

Place Temperature
No Stations Reporting

Earthquake Activity

City Distance Mag. Time & Date
No recent earthquake activity has been reported nearby.
Minimum magnitude displayed is 2.5.

Nearby Weather Stations

Station Location Temp. Dew Point Humidity Wind Precip. Elev Updated Type
Neligh, NE 65.4 °F 31 °F 28% NNE  at  5.0 mph 0.00 in / hr 1750 ft 11:05 AM CDT Normal
Deloit 12 south 2 west of Ewing, Ewing, NE 63.4 °F 36 °F 36% North  at  6.0 mph 0.00 in / hr 1965 ft 11:10 AM CDT Rapid Fire
Ewing, NE 65.4 °F 30 °F 26% North  at  11.0 mph 0.00 in / hr 1929 ft 11:05 AM CDT Normal
50196 US Highway 20, Inman, NE 64.0 °F 36 °F 35% NW  at  13.0 mph 0.00 in / hr 1903 ft 11:10 AM CDT Rapid Fire

Show More Stations Show Fewer Stations

What do you think?

We're not finished. Please let us know what you like, what you don't like, and what you are still missing.